Time;durP1;ratioP1;P1;durP2;ratioP2;P2;SDS_P1;SDS_P2;PMS_P1;PMS_P2;Temp;Humidity;BMP_temperature;BMP_pressure;BME280_temperature;BME280_humidity;BME280_pressure;Samples;Min_cycle;Max_cycle;Signal;HPM_P1;HPM_P2
2022/05/28 00:00:00;;;;;;;3.50;2.55;;;14.60;70.50;;;;;;4971620;28;20112;-82
2022/05/28 00:02:27;;;;;;;4.43;2.33;;;14.50;70.50;;;;;;4953773;28;20050;-81
2022/05/28 00:04:53;;;;;;;6.68;2.58;;;14.50;70.50;;;;;;4986305;28;20034;-83
2022/05/28 00:07:19;;;;;;;5.53;2.60;;;14.50;70.60;;;;;;4963870;28;20034;-83
2022/05/28 00:09:45;;;;;;;4.13;1.92;;;14.50;70.70;;;;;;4980017;28;20031;-83
2022/05/28 00:12:11;;;;;;;5.75;2.38;;;14.40;70.70;;;;;;4961533;28;20034;-84
2022/05/28 00:14:37;;;;;;;3.42;1.92;;;14.40;70.70;;;;;;4981496;28;20917;-82
2022/05/28 00:17:03;;;;;;;3.05;2.00;;;14.40;70.70;;;;;;4972026;28;20480;-83
2022/05/28 00:19:29;;;;;;;4.97;2.35;;;14.40;70.80;;;;;;4981640;28;20069;-82
2022/05/28 00:21:55;;;;;;;3.55;2.17;;;14.40;70.70;;;;;;4963915;28;20529;-83
2022/05/28 00:24:21;;;;;;;4.68;2.80;;;14.40;70.80;;;;;;4951145;28;20046;-83
2022/05/28 00:26:47;;;;;;;4.38;2.92;;;14.40;70.80;;;;;;4950783;28;20420;-83
2022/05/28 00:29:13;;;;;;;7.47;3.10;;;14.40;70.90;;;;;;4955849;28;20072;-82
2022/05/28 00:31:39;;;;;;;4.07;2.40;;;14.40;70.80;;;;;;4963919;28;20069;-83
2022/05/28 00:34:05;;;;;;;4.72;2.80;;;14.30;70.80;;;;;;4963781;28;20048;-83
2022/05/28 00:36:31;;;;;;;5.07;2.80;;;14.30;70.80;;;;;;4963106;28;20088;-83
2022/05/28 00:38:57;;;;;;;4.28;2.38;;;14.30;70.90;;;;;;4963181;28;20038;-83
2022/05/28 00:41:23;;;;;;;5.10;2.50;;;14.30;70.80;;;;;;4983392;28;20049;-83
2022/05/28 00:43:50;;;;;;;2.95;2.30;;;14.30;70.90;;;;;;4980890;28;20034;-81
2022/05/28 00:46:25;;;;;;;4.43;2.65;;;14.30;70.80;;;;;;4981168;28;20074;-82
2022/05/28 00:48:57;;;;;;;4.63;2.20;;;14.30;70.80;;;;;;4979995;28;20532;-82
2022/05/28 00:51:40;;;;;;;5.15;2.45;;;14.30;70.80;;;;;;4981797;28;20070;-82
2022/05/28 00:54:06;;;;;;;4.85;2.50;;;14.30;70.90;;;;;;4981144;28;20035;-82
2022/05/28 00:56:33;;;;;;;4.53;2.63;;;14.20;70.80;;;;;;4981284;28;20046;-82
2022/05/28 00:58:59;;;;;;;6.55;2.90;;;14.20;70.80;;;;;;4982621;28;20130;-82
2022/05/28 01:01:29;;;;;;;5.32;2.83;;;14.20;70.80;;;;;;4963403;28;20133;-82
2022/05/28 01:04:01;;;;;;;7.50;2.85;;;14.20;70.90;;;;;;4951448;28;20038;-82
2022/05/28 01:06:39;;;;;;;7.55;2.35;;;14.20;71.00;;;;;;4954230;28;20150;-83
2022/05/28 01:09:10;;;;;;;4.35;2.72;;;14.20;70.90;;;;;;4971560;28;20034;-82
2022/05/28 01:12:15;;;;;;;7.90;2.80;;;14.20;71.00;;;;;;4957485;28;20050;-85
2022/05/28 01:15:11;;;;;;;5.32;2.33;;;14.20;70.90;;;;;;4913626;29;20040;-84
2022/05/28 01:17:48;;;;;;;;;;;14.20;70.80;;;;;;4863604;29;20044;-85
2022/05/28 01:20:40;;;;;;;7.22;3.35;;;14.20;71.00;;;;;;4863075;29;19954;-83
2022/05/28 01:23:48;;;;;;;5.88;3.03;;;14.20;71.00;;;;;;4877386;29;20109;-83
2022/05/28 01:26:40;;;;;;;5.68;2.95;;;14.20;71.00;;;;;;4875789;29;20152;-85
2022/05/28 01:29:10;;;;;;;7.32;3.97;;;14.20;71.10;;;;;;4876559;29;20051;-84
2022/05/28 01:31:37;;;;;;;6.18;3.88;;;14.20;71.20;;;;;;4875706;29;20040;-85
2022/05/28 01:34:06;;;;;;;6.55;3.78;;;14.20;71.20;;;;;;4884339;29;20045;-83
2022/05/28 01:36:35;;;;;;;7.18;4.40;;;14.30;71.20;;;;;;4874246;29;20061;-85
2022/05/28 01:39:02;;;;;;;6.05;4.10;;;14.30;71.20;;;;;;4891802;29;20051;-84
2022/05/28 01:41:31;;;;;;;5.75;3.63;;;14.30;71.10;;;;;;4874872;29;20143;-85
2022/05/28 01:43:58;;;;;;;7.55;4.15;;;14.30;71.10;;;;;;4894491;29;20088;-85
2022/05/28 01:46:29;;;;;;;8.57;4.57;;;14.30;71.10;;;;;;4895128;29;20052;-84
2022/05/28 01:48:56;;;;;;;6.78;4.10;;;14.30;71.10;;;;;;4913006;29;20125;-83
2022/05/28 01:51:25;;;;;;;7.57;4.85;;;14.30;71.00;;;;;;4926919;29;20043;-83
2022/05/28 01:54:09;;;;;;;5.95;3.80;;;14.30;71.00;;;;;;4942978;28;20046;-83
2022/05/28 01:56:38;;;;;;;7.18;4.07;;;14.30;71.10;;;;;;4991107;28;20053;-83
2022/05/28 01:59:05;;;;;;;5.72;3.97;;;14.30;71.10;;;;;;4997999;28;20074;-82
2022/05/28 02:01:30;;;;;;;5.72;3.85;;;14.30;71.20;;;;;;5001764;28;20081;-81
2022/05/28 02:04:00;;;;;;;8.43;3.22;;;14.30;71.10;;;;;;4989220;28;20448;-83
2022/05/28 02:06:26;;;;;;;5.55;3.30;;;14.30;71.10;;;;;;4982234;28;20042;-83
2022/05/28 02:08:55;;;;;;;6.57;3.40;;;14.30;71.00;;;;;;4967656;28;20038;-82
2022/05/28 02:11:26;;;;;;;4.60;3.40;;;14.30;70.90;;;;;;4984808;28;20038;-83
2022/05/28 02:13:58;;;;;;;9.32;3.05;;;14.30;71.00;;;;;;4983953;28;20039;-82
2022/05/28 02:16:49;;;;;;;6.75;2.90;;;14.40;71.00;;;;;;4968728;28;20034;-82
2022/05/28 02:19:42;;;;;;;6.50;3.58;;;14.40;71.00;;;;;;4950436;28;20532;-82
2022/05/28 02:22:21;;;;;;;7.28;3.53;;;14.40;71.00;;;;;;4992899;28;20038;-82
2022/05/28 02:24:54;;;;;;;6.88;4.03;;;14.40;70.90;;;;;;4995259;28;20038;-82
2022/05/28 02:27:22;;;;;;;8.20;5.10;;;14.50;71.20;;;;;;4974702;28;20042;-82
2022/05/28 02:29:49;;;;;;;9.73;4.63;;;14.60;71.50;;;;;;4978904;28;20439;-83
2022/05/28 02:32:21;;;;;;;6.57;4.32;;;14.70;71.40;;;;;;4977525;28;20041;-83
2022/05/28 02:34:50;;;;;;;7.47;4.40;;;14.80;71.10;;;;;;4976396;28;20053;-84
2022/05/28 02:37:20;;;;;;;9.60;4.68;;;14.90;70.90;;;;;;4952202;28;20045;-83
2022/05/28 02:39:46;;;;;;;4.10;3.65;;;15.10;70.60;;;;;;4977288;28;20520;-82
2022/05/28 02:42:12;;;;;;;12.63;4.50;;;15.20;70.30;;;;;;4975340;28;20049;-83
2022/05/28 02:44:38;;;;;;;7.35;3.78;;;15.30;70.00;;;;;;4944097;28;20134;-83
2022/05/28 02:47:05;;;;;;;7.72;4.60;;;15.40;69.70;;;;;;4977339;28;20559;-83
2022/05/28 02:49:31;;;;;;;9.35;4.75;;;15.50;69.40;;;;;;4976750;28;20038;-84
2022/05/28 02:52:01;;;;;;;6.78;4.15;;;15.60;69.20;;;;;;4968483;28;20046;-83
2022/05/28 02:54:28;;;;;;;6.05;4.63;;;15.70;69.00;;;;;;4977124;28;20121;-83
2022/05/28 02:56:54;;;;;;;5.68;3.85;;;15.80;68.80;;;;;;4977645;28;20042;-84
2022/05/28 02:59:20;;;;;;;8.02;3.80;;;15.90;68.60;;;;;;4962991;28;20501;-84
2022/05/28 03:01:46;;;;;;;5.68;3.25;;;16.00;68.50;;;;;;4980349;28;20061;-83
2022/05/28 03:04:12;;;;;;;6.63;4.28;;;16.00;68.50;;;;;;4952188;28;20088;-83
2022/05/28 03:06:38;;;;;;;5.63;3.97;;;16.00;68.70;;;;;;4960945;28;20035;-83
2022/05/28 03:09:06;;;;;;;9.43;4.43;;;15.90;68.70;;;;;;4964887;28;20035;-86
2022/05/28 03:11:34;;;;;;;8.20;4.05;;;15.90;69.00;;;;;;4968344;28;20038;-85
2022/05/28 03:14:00;;;;;;;8.93;4.68;;;15.90;69.00;;;;;;4963386;28;20034;-84
2022/05/28 03:16:26;;;;;;;7.63;4.22;;;15.90;69.10;;;;;;4961754;28;20084;-83
2022/05/28 03:18:52;;;;;;;9.25;4.47;;;15.90;69.20;;;;;;4978339;28;20031;-83
2022/05/28 03:21:19;;;;;;;7.45;4.20;;;15.90;69.20;;;;;;4962494;28;20355;-84
2022/05/28 03:23:47;;;;;;;5.93;3.88;;;15.90;69.30;;;;;;4959631;28;20046;-84
2022/05/28 03:26:27;;;;;;;9.50;4.50;;;15.90;69.50;;;;;;4962466;28;20066;-84
2022/05/28 03:28:56;;;;;;;9.73;4.43;;;15.90;69.50;;;;;;4945820;28;20572;-82
2022/05/28 03:31:24;;;;;;;10.00;4.90;;;15.90;69.60;;;;;;4981980;28;20042;-85
2022/05/28 03:33:50;;;;;;;10.85;4.38;;;15.90;69.40;;;;;;4947643;28;20040;-83
2022/05/28 03:36:17;;;;;;;8.48;4.25;;;15.90;69.60;;;;;;4983153;28;20050;-82
2022/05/28 03:38:43;;;;;;;11.35;4.40;;;15.90;69.80;;;;;;4976372;28;20039;-83
2022/05/28 03:41:10;;;;;;;7.75;4.22;;;15.90;69.80;;;;;;4969662;28;20061;-83
2022/05/28 03:43:37;;;;;;;6.45;3.70;;;15.90;69.80;;;;;;4985734;28;20038;-83
2022/05/28 03:46:03;;;;;;;9.18;4.28;;;15.90;69.80;;;;;;4958593;28;20039;-83
2022/05/28 03:48:32;;;;;;;10.85;4.13;;;15.90;69.80;;;;;;4979297;28;20034;-85
2022/05/28 03:50:58;;;;;;;9.30;4.50;;;15.90;70.00;;;;;;4949462;28;20041;-84
2022/05/28 03:53:24;;;;;;;8.18;3.65;;;15.90;69.80;;;;;;4964836;28;20035;-84
2022/05/28 03:55:51;;;;;;;7.60;4.20;;;16.00;69.80;;;;;;4967327;28;20046;-83
2022/05/28 03:58:17;;;;;;;12.27;4.68;;;16.10;69.50;;;;;;4966894;28;20026;-84
2022/05/28 04:00:43;;;;;;;7.78;3.80;;;16.30;69.30;;;;;;4950124;28;20180;-83
2022/05/28 04:03:09;;;;;;;6.60;3.03;;;16.50;69.00;;;;;;4971305;28;20053;-84
2022/05/28 04:05:38;;;;;;;8.20;2.95;;;16.70;68.70;;;;;;4982230;28;20026;-83
2022/05/28 04:08:05;;;;;;;12.05;3.45;;;16.90;68.50;;;;;;4981464;28;20039;-83
2022/05/28 04:10:31;;;;;;;6.50;3.25;;;17.00;68.30;;;;;;4955989;28;20042;-82
2022/05/28 04:12:57;;;;;;;5.13;3.13;;;17.10;68.20;;;;;;4971432;28;20042;-83
2022/05/28 04:15:24;;;;;;;6.13;3.03;;;17.30;68.10;;;;;;4983977;28;20433;-83
2022/05/28 04:17:50;;;;;;;4.90;2.75;;;17.40;67.90;;;;;;4963828;28;20575;-82
2022/05/28 04:20:16;;;;;;;4.32;2.60;;;17.60;67.80;;;;;;4971235;28;20045;-84
2022/05/28 04:22:42;;;;;;;5.45;2.50;;;17.70;67.60;;;;;;4957906;28;20034;-84
2022/05/28 04:25:08;;;;;;;7.78;3.20;;;17.80;67.50;;;;;;4982670;28;20121;-84
2022/05/28 04:27:34;;;;;;;3.97;2.35;;;18.00;67.40;;;;;;4964193;28;20133;-82
2022/05/28 04:30:01;;;;;;;5.15;2.92;;;18.10;67.30;;;;;;4939609;28;20054;-82
2022/05/28 04:32:27;;;;;;;3.33;2.22;;;18.20;67.10;;;;;;4965567;28;20129;-83
2022/05/28 04:34:56;;;;;;;3.40;2.50;;;18.40;67.00;;;;;;4955613;28;20035;-82
2022/05/28 04:37:22;;;;;;;5.07;2.63;;;18.30;66.90;;;;;;4963606;28;20042;-82
2022/05/28 04:39:48;;;;;;;3.85;2.67;;;18.40;67.10;;;;;;4965096;28;20030;-83
2022/05/28 04:42:14;;;;;;;6.28;2.35;;;18.40;67.20;;;;;;4980421;28;20039;-82
2022/05/28 04:44:40;;;;;;;5.03;2.42;;;18.40;67.20;;;;;;4979749;28;20030;-82
2022/05/28 04:47:07;;;;;;;5.38;2.50;;;18.60;67.20;;;;;;4990399;28;20034;-84
2022/05/28 04:49:33;;;;;;;3.55;1.90;;;18.60;67.00;;;;;;4972401;28;20418;-82
2022/05/28 04:51:59;;;;;;;5.13;2.00;;;18.70;66.90;;;;;;4969320;28;20149;-83
2022/05/28 04:54:25;;;;;;;6.40;2.40;;;18.80;66.90;;;;;;4964490;28;20027;-82
2022/05/28 04:56:51;;;;;;;3.63;2.03;;;18.80;67.00;;;;;;4972226;28;20073;-81
2022/05/28 04:59:18;;;;;;;4.53;2.30;;;18.70;67.30;;;;;;4978489;28;20409;-84
2022/05/28 05:01:44;;;;;;;4.72;2.40;;;18.70;67.40;;;;;;4964400;28;20034;-83
2022/05/28 05:04:10;;;;;;;4.18;2.10;;;18.70;67.40;;;;;;4966555;28;20029;-85
2022/05/28 05:06:36;;;;;;;7.13;2.55;;;18.80;67.40;;;;;;4952978;28;20188;-84
2022/05/28 05:09:02;;;;;;;7.15;2.80;;;18.80;67.30;;;;;;4962359;28;20541;-84
2022/05/28 05:11:28;;;;;;;4.68;2.88;;;18.80;67.50;;;;;;4979720;28;20022;-84
2022/05/28 05:13:54;;;;;;;4.47;2.40;;;18.70;67.70;;;;;;4964983;28;20034;-83
2022/05/28 05:16:20;;;;;;;8.25;2.67;;;18.60;68.10;;;;;;4980518;28;20035;-84
2022/05/28 05:18:46;;;;;;;5.22;2.58;;;18.50;68.40;;;;;;4953440;28;20128;-83
2022/05/28 05:21:13;;;;;;;5.22;2.50;;;18.40;68.70;;;;;;4962813;28;20137;-83
2022/05/28 05:23:40;;;;;;;5.80;2.30;;;18.30;68.80;;;;;;4971342;28;20030;-83
2022/05/28 05:26:11;;;;;;;3.90;2.15;;;18.30;69.20;;;;;;4961886;28;20512;-84
2022/05/28 05:28:38;;;;;;;5.13;3.00;;;18.20;69.40;;;;;;4969682;28;20121;-83
2022/05/28 05:31:03;;;;;;;5.65;2.00;;;18.20;69.30;;;;;;4964328;28;20042;-84
2022/05/28 05:33:30;;;;;;;3.15;1.80;;;18.10;69.00;;;;;;4953726;28;20065;-85
2022/05/28 05:35:56;;;;;;;8.00;2.28;;;18.10;69.00;;;;;;4980512;28;20027;-84
2022/05/28 05:38:22;;;;;;;5.45;2.15;;;18.10;68.90;;;;;;4964354;28;20045;-85
2022/05/28 05:40:51;;;;;;;1.60;1.50;;;18.00;68.70;;;;;;4953242;28;20034;-84
2022/05/28 05:43:17;;;;;;;2.53;1.60;;;18.00;68.70;;;;;;4980241;28;20034;-84
2022/05/28 05:45:50;;;;;;;6.75;1.83;;;18.00;68.50;;;;;;4962482;28;20046;-86
2022/05/28 05:48:16;;;;;;;4.07;1.67;;;17.90;68.40;;;;;;4963144;28;20050;-85
2022/05/28 05:50:42;;;;;;;3.10;1.73;;;17.90;68.50;;;;;;4952731;28;20039;-85
2022/05/28 05:53:08;;;;;;;6.32;1.70;;;17.90;68.30;;;;;;4962660;28;20026;-83
2022/05/28 05:55:34;;;;;;;3.92;1.92;;;17.90;68.40;;;;;;4965342;28;21072;-84
2022/05/28 05:58:00;;;;;;;3.38;1.85;;;17.90;68.30;;;;;;4985316;28;20031;-84
2022/05/28 06:00:26;;;;;;;3.40;1.77;;;17.80;68.30;;;;;;4974155;28;20035;-85
2022/05/28 06:02:52;;;;;;;3.88;1.80;;;17.80;68.40;;;;;;4988023;28;20046;-82
2022/05/28 06:05:18;;;;;;;5.72;1.80;;;17.80;68.40;;;;;;4985989;28;20030;-84
2022/05/28 06:07:44;;;;;;;8.70;2.20;;;17.70;68.00;;;;;;4946335;28;20429;-83
2022/05/28 06:10:12;;;;;;;5.05;2.10;;;17.80;68.30;;;;;;4978631;28;20038;-85
2022/05/28 06:12:38;;;;;;;3.33;1.90;;;17.70;68.40;;;;;;4955004;28;20477;-84
2022/05/28 06:15:05;;;;;;;3.58;1.88;;;17.70;68.50;;;;;;4980806;28;20117;-84
2022/05/28 06:17:33;;;;;;;3.58;1.77;;;17.70;68.60;;;;;;4973418;28;20046;-80
2022/05/28 06:19:59;;;;;;;6.13;2.35;;;17.70;69.00;;;;;;4983210;28;20041;-85
2022/05/28 06:22:25;;;;;;;5.70;2.15;;;17.60;69.10;;;;;;4981095;28;20047;-85
2022/05/28 06:24:51;;;;;;;3.80;2.10;;;17.60;69.40;;;;;;4973604;28;20177;-81
2022/05/28 06:27:17;;;;;;;2.63;2.20;;;17.60;69.50;;;;;;4956651;28;20436;-83
2022/05/28 06:29:43;;;;;;;3.53;2.28;;;17.50;69.50;;;;;;4957220;28;20034;-83
2022/05/28 06:32:09;;;;;;;5.30;1.90;;;17.60;70.70;;;;;;4968385;28;20040;-85
2022/05/28 06:34:35;;;;;;;5.45;1.90;;;17.50;69.90;;;;;;4986213;28;20062;-81
2022/05/28 06:37:01;;;;;;;6.00;2.13;;;17.50;69.70;;;;;;4969993;28;20065;-84
2022/05/28 06:39:27;;;;;;;6.13;2.92;;;17.50;69.70;;;;;;4963666;28;20041;-84
2022/05/28 06:41:53;;;;;;;9.95;2.83;;;17.40;69.70;;;;;;4979847;28;20035;-85
2022/05/28 06:44:21;;;;;;;2.95;1.95;;;17.40;69.90;;;;;;4964882;28;20077;-84
2022/05/28 06:46:47;;;;;;;5.05;2.45;;;17.30;70.20;;;;;;4961086;28;20643;-81
2022/05/28 06:49:12;;;;;;;4.22;2.03;;;17.30;70.20;;;;;;4962130;28;20040;-86
2022/05/28 06:51:39;;;;;;;7.43;2.75;;;17.20;70.30;;;;;;4947827;28;20046;-85
2022/05/28 06:54:05;;;;;;;5.65;2.30;;;17.20;70.60;;;;;;4978846;28;20035;-85
2022/05/28 06:56:31;;;;;;;2.92;2.05;;;17.10;70.70;;;;;;4950107;28;21019;-83
2022/05/28 06:58:57;;;;;;;3.47;2.40;;;17.10;70.90;;;;;;4964231;28;20042;-82
2022/05/28 07:01:23;;;;;;;4.90;2.30;;;17.10;70.90;;;;;;4954095;28;20093;-83
2022/05/28 07:03:49;;;;;;;5.05;2.40;;;17.00;71.00;;;;;;4963134;28;20038;-83
2022/05/28 07:06:15;;;;;;;5.22;2.40;;;17.00;71.00;;;;;;4974457;28;20085;-82
2022/05/28 07:08:42;;;;;;;5.93;2.20;;;17.00;71.20;;;;;;4999869;28;20035;-80
2022/05/28 07:11:08;;;;;;;5.78;2.65;;;16.90;71.20;;;;;;4995373;28;20042;-85
2022/05/28 07:13:35;;;;;;;6.78;2.78;;;16.90;71.40;;;;;;4994430;28;20511;-86
2022/05/28 07:16:03;;;;;;;4.88;2.10;;;16.80;71.40;;;;;;4990504;28;20066;-86
2022/05/28 07:18:29;;;;;;;4.43;2.00;;;16.80;71.30;;;;;;4989908;28;20501;-86
2022/05/28 07:20:55;;;;;;;6.57;2.30;;;16.80;71.10;;;;;;4976012;28;20042;-85
2022/05/28 07:23:27;;;;;;;6.28;2.03;;;16.80;71.10;;;;;;4978606;28;20128;-86
2022/05/28 07:26:10;;;;;;;3.45;1.85;;;16.70;70.80;;;;;;4976151;28;20112;-86
2022/05/28 07:28:38;;;;;;;4.68;1.70;;;16.70;70.60;;;;;;4997225;28;20065;-85
2022/05/28 07:31:10;;;;;;;10.05;2.20;;;16.70;70.40;;;;;;4991132;28;20034;-86
2022/05/28 07:33:38;;;;;;;3.85;1.80;;;16.70;70.40;;;;;;4963104;28;20453;-86
2022/05/28 07:36:06;;;;;;;4.97;1.40;;;16.70;70.40;;;;;;4974311;28;20035;-86
2022/05/28 07:38:33;;;;;;;2.90;1.80;;;16.70;70.40;;;;;;4997433;28;20034;-86
2022/05/28 07:41:04;;;;;;;2.50;1.83;;;16.60;70.50;;;;;;4989730;28;20046;-84
2022/05/28 07:43:31;;;;;;;2.78;1.90;;;16.60;70.60;;;;;;4971536;28;20035;-84
2022/05/28 07:45:57;;;;;;;6.00;1.88;;;16.60;70.70;;;;;;4961240;28;20030;-82
2022/05/28 07:48:23;;;;;;;5.85;2.03;;;16.60;73.00;;;;;;4994684;28;20038;-91
2022/05/28 07:50:49;;;;;;;5.82;2.00;;;16.60;74.00;;;;;;4996086;28;20038;-84
2022/05/28 07:53:15;;;;;;;4.85;2.50;;;16.60;73.60;;;;;;4992578;28;20030;-84
2022/05/28 07:55:41;;;;;;;2.78;1.95;;;16.50;72.60;;;;;;4977764;28;20040;-85
2022/05/28 07:58:11;;;;;;;8.45;2.47;;;16.50;72.60;;;;;;4974673;28;20052;-86
2022/05/28 08:00:39;;;;;;;8.20;4.55;;;16.50;72.60;;;;;;4983194;28;20053;-87
2022/05/28 08:03:06;;;;;;;6.15;3.92;;;16.40;72.00;;;;;;4964599;28;20030;-87
2022/05/28 08:05:32;;;;;;;7.85;4.35;;;16.40;71.40;;;;;;4964944;28;20618;-87
2022/05/28 08:07:58;;;;;;;5.50;3.00;;;16.40;71.50;;;;;;4942334;28;20069;-87
2022/05/28 08:10:24;;;;;;;5.20;2.85;;;16.40;71.50;;;;;;4961263;28;20421;-87
2022/05/28 08:12:50;;;;;;;4.90;2.70;;;16.40;71.80;;;;;;4962847;28;20069;-87
2022/05/28 08:15:16;;;;;;;4.85;2.67;;;16.40;72.00;;;;;;4942412;28;20085;-84
2022/05/28 08:17:42;;;;;;;7.18;3.17;;;16.30;72.10;;;;;;4993788;28;20031;-88
2022/05/28 08:20:10;;;;;;;5.07;2.75;;;16.40;72.20;;;;;;4979701;28;20034;-85
2022/05/28 08:25:21;;;;;;;4.50;2.80;;;16.40;72.40;;;;;;4993105;28;20124;-87
2022/05/28 08:27:47;;;;;;;6.00;3.08;;;16.40;72.50;;;;;;4970678;28;20047;-87
2022/05/28 08:30:14;;;;;;;4.65;3.10;;;16.40;72.40;;;;;;4970309;28;20144;-85
2022/05/28 08:32:40;;;;;;;4.15;2.60;;;16.40;72.30;;;;;;4966251;28;20528;-87
2022/05/28 08:35:07;;;;;;;3.85;3.10;;;16.40;72.10;;;;;;4984159;28;20034;-86
2022/05/28 08:37:33;;;;;;;8.02;2.70;;;16.40;72.00;;;;;;4970853;28;20137;-86
2022/05/28 08:39:59;;;;;;;5.82;2.75;;;16.40;72.10;;;;;;4964566;28;20061;-87
2022/05/28 08:42:27;;;;;;;7.93;2.85;;;16.40;71.90;;;;;;4971664;28;20050;-86
2022/05/28 08:44:55;;;;;;;5.43;2.83;;;16.40;72.00;;;;;;4968731;28;20094;-86
2022/05/28 08:47:27;;;;;;;6.10;2.45;;;16.40;71.90;;;;;;4938472;28;20038;-86
2022/05/28 08:49:53;;;;;;;5.78;2.33;;;16.40;71.80;;;;;;4981936;28;20394;-90
2022/05/28 08:52:36;;;;;;;4.05;2.67;;;16.50;71.70;;;;;;4949513;28;20031;-86
2022/05/28 08:55:08;;;;;;;7.57;3.03;;;16.40;71.80;;;;;;4971753;28;20060;-86
2022/05/28 08:57:45;;;;;;;7.30;3.47;;;16.50;71.50;;;;;;4955724;28;20496;-88
2022/05/28 09:00:28;;;;;;;6.68;2.95;;;16.50;71.70;;;;;;4955720;28;20484;-88
2022/05/28 09:03:02;;;;;;;5.25;2.78;;;16.50;71.40;;;;;;4965189;28;20061;-86
2022/05/28 09:05:50;;;;;;;5.93;2.80;;;16.50;71.60;;;;;;4980457;28;20026;-89
2022/05/28 09:08:29;;;;;;;4.63;2.70;;;16.50;71.50;;;;;;4964386;28;20541;-89
2022/05/28 09:11:01;;;;;;;5.13;2.70;;;16.60;71.30;;;;;;4981145;28;20050;-89
2022/05/28 09:13:39;;;;;;;5.78;3.15;;;16.60;71.10;;;;;;4982363;28;20058;-92
2022/05/28 09:16:11;;;;;;;6.90;2.80;;;16.60;71.30;;;;;;4951885;28;20039;-84
2022/05/28 09:18:40;;;;;;;8.75;2.80;;;16.70;71.30;;;;;;4938432;28;20030;-85
2022/05/28 09:21:13;;;;;;;3.85;2.20;;;16.70;71.50;;;;;;4946559;28;20074;-86
2022/05/28 09:23:58;;;;;;;4.80;2.42;;;16.80;71.20;;;;;;4965539;28;20027;-84
2022/05/28 09:26:57;;;;;;;9.80;2.78;;;16.80;70.40;;;;;;4948912;28;20536;-83
2022/05/28 09:29:51;;;;;;;8.45;2.70;;;16.80;69.90;;;;;;4991105;28;20077;-83
2022/05/28 09:32:28;;;;;;;7.35;2.72;;;16.80;69.70;;;;;;4993883;28;20030;-82
2022/05/28 09:35:19;;;;;;;6.63;2.80;;;16.80;69.80;;;;;;4960097;28;20081;-81
2022/05/28 09:37:52;;;;;;;9.55;3.10;;;16.80;69.80;;;;;;4956241;28;20617;-84
2022/05/28 09:40:30;;;;;;;9.55;2.90;;;16.90;70.40;;;;;;4962552;28;20047;-84
2022/05/28 09:43:21;;;;;;;6.50;3.05;;;16.90;70.30;;;;;;4954582;28;20046;-85
2022/05/28 09:45:58;;;;;;;5.28;2.72;;;16.90;70.40;;;;;;4960117;28;20077;-86
2022/05/28 09:48:28;;;;;;;4.55;2.40;;;16.90;70.00;;;;;;4960894;28;20149;-86
2022/05/28 09:50:55;;;;;;;7.55;2.95;;;16.90;70.50;;;;;;4996493;28;20041;-90
2022/05/28 09:56:26;;;;;;;5.10;2.50;;;16.90;69.50;;;;;;4969491;28;20504;-88
2022/05/28 09:58:53;;;;;;;4.60;2.60;;;16.90;69.30;;;;;;4969970;28;20056;-87
2022/05/28 10:01:26;;;;;;;4.13;2.38;;;16.90;69.30;;;;;;4957254;28;20066;-83
2022/05/28 10:06:53;;;;;;;9.88;3.17;;;16.90;69.30;;;;;;4971010;28;20041;-86
2022/05/28 10:09:22;;;;;;;4.68;2.55;;;16.80;69.00;;;;;;4972977;28;20030;-91
2022/05/28 10:11:55;;;;;;;6.60;2.10;;;16.80;69.00;;;;;;4964157;28;20129;-89
2022/05/28 10:14:23;;;;;;;11.07;2.53;;;16.80;68.90;;;;;;4956280;28;20043;-88
2022/05/28 10:16:55;;;;;;;2.97;2.42;;;16.80;68.70;;;;;;4983440;28;20050;-88
2022/05/28 10:19:52;;;;;;;5.65;2.00;;;16.90;68.70;;;;;;4978278;28;20371;-87
2022/05/28 10:22:20;;;;;;;3.17;1.77;;;16.90;68.50;;;;;;4938724;28;20034;-87
2022/05/28 10:24:50;;;;;;;5.80;2.42;;;16.90;68.80;;;;;;4955380;28;20734;-88
2022/05/28 10:27:27;;;;;;;5.97;2.58;;;16.90;68.70;;;;;;4966841;28;20391;-85
2022/05/28 10:29:57;;;;;;;6.55;2.40;;;17.00;68.70;;;;;;4952744;28;20125;-87
2022/05/28 10:32:46;;;;;;;16.45;4.30;;;17.00;68.60;;;;;;4966809;28;20173;-86
2022/05/28 10:35:26;;;;;;;12.88;3.78;;;17.00;68.60;;;;;;4966199;28;20038;-88
2022/05/28 10:37:53;;;;;;;11.68;3.70;;;17.00;68.40;;;;;;4980038;28;20039;-88
2022/05/28 10:40:25;;;;;;;11.63;3.67;;;17.00;68.20;;;;;;4991690;28;20061;-88
2022/05/28 10:43:02;;;;;;;10.95;3.17;;;17.00;67.80;;;;;;4957206;28;20053;-87
2022/05/28 10:45:43;;;;;;;8.57;2.30;;;17.00;68.30;;;;;;5007804;28;20057;-91
2022/05/28 10:48:23;;;;;;;4.80;2.20;;;17.00;68.00;;;;;;4991188;28;20061;-89
2022/05/28 10:51:01;;;;;;;3.75;2.13;;;17.00;68.00;;;;;;5006918;28;20022;-90
2022/05/28 10:53:48;;;;;;;4.32;2.15;;;17.00;68.20;;;;;;4966966;28;20030;-86
2022/05/28 10:57:03;;;;;;;3.38;2.25;;;17.00;68.40;;;;;;4991151;28;20046;-87
2022/05/28 10:59:49;;;;;;;4.53;2.10;;;17.00;68.70;;;;;;4878559;29;20089;-91
2022/05/28 11:02:27;;;;;;;3.08;2.47;;;17.10;69.00;;;;;;4978765;28;20611;-89
2022/05/28 11:05:12;;;;;;;3.25;2.05;;;17.10;69.10;;;;;;4962240;28;20651;-88
2022/05/28 11:08:00;;;;;;;4.32;2.17;;;17.10;69.30;;;;;;4963856;28;20134;-86
2022/05/28 11:10:39;;;;;;;3.33;2.30;;;17.20;69.40;;;;;;4979076;28;20098;-87
2022/05/28 11:13:24;;;;;;;4.13;2.20;;;17.20;69.50;;;;;;4978160;28;20538;-87
2022/05/28 11:16:21;;;;;;;4.72;2.88;;;17.20;69.60;;;;;;4980069;28;20031;-88
2022/05/28 11:19:24;;;;;;;3.10;2.30;;;17.30;69.70;;;;;;4979887;28;20034;-86
2022/05/28 11:22:22;;;;;;;4.28;2.47;;;17.20;69.60;;;;;;4933604;28;20035;-88
2022/05/28 11:24:55;;;;;;;4.05;2.25;;;17.20;69.40;;;;;;4942404;28;20035;-87
2022/05/28 11:27:39;;;;;;;2.88;2.10;;;17.20;69.00;;;;;;4947441;28;20043;-85
2022/05/28 11:30:14;;;;;;;3.25;2.15;;;17.30;68.80;;;;;;4915466;28;20050;-85
2022/05/28 11:32:44;;;;;;;;;;;17.30;68.70;;;;;;4916851;28;20437;-85
2022/05/28 11:35:46;;;;;;;3.40;1.80;;;17.30;68.50;;;;;;4912846;28;20308;-85
2022/05/28 11:38:36;;;;;;;3.08;2.00;;;17.20;68.30;;;;;;4948460;28;20039;-83
2022/05/28 11:41:21;;;;;;;6.50;2.30;;;17.30;68.40;;;;;;4931548;28;20446;-86
2022/05/28 11:44:12;;;;;;;2.70;1.90;;;17.30;68.40;;;;;;4931942;28;20649;-90
2022/05/28 11:46:46;;;;;;;4.53;2.40;;;17.20;68.80;;;;;;4933417;28;20116;-92
2022/05/28 11:52:22;;;;;;;3.63;2.33;;;17.30;68.30;;;;;;4968361;28;20467;-82
2022/05/28 11:55:17;;;;;;;5.18;2.83;;;17.20;68.50;;;;;;4965375;28;20046;-86
2022/05/28 11:58:04;;;;;;;5.07;2.28;;;17.20;68.60;;;;;;4913421;28;20066;-87
2022/05/28 12:00:37;;;;;;;5.45;1.90;;;17.20;69.00;;;;;;4953511;28;20030;-85
2022/05/28 12:03:25;;;;;;;2.75;2.05;;;17.30;69.10;;;;;;4978610;28;20506;-85
2022/05/28 12:05:54;;;;;;;3.38;1.63;;;17.30;69.00;;;;;;4967814;28;20084;-86
2022/05/28 12:09:02;;;;;;;3.92;1.70;;;17.30;68.90;;;;;;4963046;28;20035;-85
2022/05/28 12:11:47;;;;;;;3.08;1.70;;;17.40;68.50;;;;;;4937460;28;20056;-84
2022/05/28 12:14:41;;;;;;;4.38;1.40;;;17.40;68.00;;;;;;4956912;28;20069;-85
2022/05/28 12:17:10;;;;;;;4.72;1.63;;;17.40;67.80;;;;;;4954402;28;20046;-86
2022/05/28 12:19:50;;;;;;;3.70;1.70;;;17.40;67.60;;;;;;4974447;28;20102;-85
2022/05/28 12:22:25;;;;;;;5.68;2.10;;;17.50;67.50;;;;;;4983092;28;20070;-83
2022/05/28 12:25:28;;;;;;;4.68;2.15;;;17.50;67.10;;;;;;4972862;28;20038;-86
2022/05/28 12:27:55;;;;;;;4.65;1.67;;;17.40;67.10;;;;;;4968967;28;20126;-83
2022/05/28 12:30:41;;;;;;;2.97;1.67;;;17.40;67.90;;;;;;4978534;28;20038;-84
2022/05/28 12:33:30;;;;;;;4.43;1.92;;;17.40;66.70;;;;;;4988836;28;20034;-86
2022/05/28 12:36:18;;;;;;;4.22;1.42;;;17.40;66.40;;;;;;4966072;28;20063;-85
2022/05/28 12:38:54;;;;;;;2.90;1.30;;;17.40;66.10;;;;;;4958813;28;20405;-86
2022/05/28 12:41:27;;;;;;;7.30;1.98;;;17.40;65.90;;;;;;4974406;28;20054;-85
2022/05/28 12:44:19;;;;;;;4.20;1.40;;;17.40;65.30;;;;;;4965534;28;20104;-85
2022/05/28 12:46:54;;;;;;;3.00;1.55;;;17.30;64.80;;;;;;4950196;28;20073;-86
2022/05/28 12:49:23;;;;;;;3.23;1.40;;;17.30;64.70;;;;;;4965966;28;20046;-85
2022/05/28 12:52:16;;;;;;;4.40;1.40;;;17.30;64.70;;;;;;4981417;28;20042;-83
2022/05/28 12:54:43;;;;;;;2.38;1.67;;;17.30;64.80;;;;;;4949841;28;20045;-85
2022/05/28 12:57:28;;;;;;;3.83;1.55;;;17.30;64.30;;;;;;4956348;28;20038;-84
2022/05/28 13:00:06;;;;;;;1.98;1.30;;;17.30;64.90;;;;;;4992675;28;20058;-83
2022/05/28 13:02:43;;;;;;;2.72;1.63;;;17.30;64.10;;;;;;4987971;28;20097;-83
2022/05/28 13:05:29;;;;;;;3.35;1.70;;;17.30;64.30;;;;;;5006061;28;20026;-83
2022/05/28 13:08:05;;;;;;;4.82;1.85;;;17.20;64.30;;;;;;4982746;28;20421;-85
2022/05/28 13:10:31;;;;;;;3.58;1.50;;;17.20;64.50;;;;;;4959379;28;20042;-84
2022/05/28 13:12:56;;;;;;;2.58;1.80;;;17.20;65.80;;;;;;4972023;28;20030;-83
2022/05/28 13:15:49;;;;;;;9.02;2.47;;;17.20;66.50;;;;;;4955049;28;20038;-82
2022/05/28 13:18:21;;;;;;;6.20;2.05;;;17.20;66.40;;;;;;4970339;28;20058;-83
2022/05/28 13:21:06;;;;;;;5.68;2.08;;;17.20;66.10;;;;;;4963773;28;20030;-82
2022/05/28 13:23:40;;;;;;;5.07;2.50;;;17.20;65.70;;;;;;4981691;28;20045;-83